Terminal Aerodrome Forecast
Issued by NWS

Home | Current Version | Previous Version | Text Only | Print | Product List | Glossary Off
Versions: 1 2 3 4 5 6 7 8 9 10 11 12

000
FTUS45 KGGW 251141
TAFOLF
TAF
KOLF 251141Z 2512/2612 06011KT P6SM OVC017
     FM251500 06012KT P6SM BKN021
     FM251800 07011KT P6SM BKN050
     FM260200 08007KT P6SM BKN070=

USA.gov is the U.S. government's official web portal to all federal, state and local government web resources and services.